Alcala de Henares, Spain
Current Conditions -  °F | °C
As of 8:00 AM on Monday 22 Dec 2014 (Local Time) from LETO Reporting Station
Clear Clear  
Wind Chill: 30°   Ceiling: Unl
Heat Index: 30°   Visibility: 6mi
Dew Point: 28°   Wind: 3mph
Humidity: 93%   Direction: 30°NNE
Pressure: 30.48"   Gusts: NA
Location:  40.48°N, 3.36°W
Report Text: LETO 220700Z 03003KT 350V060 CAVOK M01/M02 Q1032 NOSIG
Loading
Personal Weather Stations






























Interactive Weather Map New forecast layout! Learn more

10-Day Weather Forecast

Advertisements
Track Severe Weather on mobile